Latest Weather Observations for Woolshed

IDQ60801

Issued at 5:32 pm EST Tuesday 28 February 2017 (issued every 30 minutes, with the page automatically refreshed every 10 minutes)

About weather observations | Map of weather stations | Latest weather observations for QLD | Other Formats
Station Details ID: 033307 Name: WOOLSHED Lat: -19.42 Lon: 146.54 Height: 556.04 m
Data from the previous 72 hours. | See also: Recent months at Woolshed
Date/Time
EST
Temp
°C
App
Temp
°C
Dew
Point
°C
Rel
Hum
%
Delta-T
°C
Wind Press
QNH
hPa
Press
MSL
hPa
Rain since
9am
mm
Dir  Spd
km/h
Gust
km/h
Spd
kts
Gust
kts
28/05:00pm 25.9 27.8 20.5 72 3.6 NE 11 24 6 13 1013.3 1009.7 0.0
28/04:30pm 27.0 29.4 20.8 69 4.2 NNE 9 17 5 9 1012.9 1009.2 0.0
28/04:00pm 27.4 29.5 20.2 65 4.8 NNE 9 17 5 9 1013.0 1009.3 0.0
28/03:30pm 27.4 29.7 20.7 67 4.5 NNE 9 13 5 7 1013.0 1009.3 0.0
28/03:00pm 27.9 30.4 19.9 61 5.3 NNE 6 13 3 7 1013.0 1009.3 0.0
28/02:30pm 27.6 30.2 21.2 68 4.3 NE 9 17 5 9 1013.2 1009.6 0.0
28/02:00pm 27.6 30.3 20.7 66 4.6 E 7 13 4 7 1013.6 1010.0 0.0
28/01:30pm 28.2 30.4 19.7 60 5.7 ESE 7 13 4 7 1014.0 1010.4 0.0
28/01:00pm 27.4 29.6 19.5 62 5.2 SE 7 15 4 8 1014.4 1010.7 0.0
28/12:30pm 27.5 29.7 19.3 61 5.4 E 6 11 3 6 1014.8 1011.1 0.0
28/12:00pm 26.8 28.7 19.7 65 4.7 ENE 9 19 5 10 1015.0 1011.4 0.0
28/11:30am 26.0 27.8 18.7 64 4.8 E 7 17 4 9 1015.3 1011.7 0.0
28/11:00am 26.3 28.5 19.7 67 4.4 ESE 7 13 4 7 1015.4 1011.8 0.0
28/10:30am 25.7 27.5 19.6 69 4.0 E 9 19 5 10 1015.6 1012.0 0.0
28/10:00am 25.1 27.0 19.0 69 4.0 ESE 7 13 4 7 1015.8 1012.2 0.0
28/09:30am 25.1 27.4 19.5 71 3.7 SE 6 11 3 6 1015.6 1012.0 0.0
28/09:00am 24.4 26.4 18.8 71 3.6 ESE 6 11 3 6 1015.6 1012.0 3.6
28/08:30am 23.4 25.5 19.3 78 2.7 SE 7 15 4 8 1015.7 1012.1 3.6
28/08:00am 23.1 25.5 20.1 83 2.0 ESE 7 15 4 8 1015.4 1011.8 3.6
28/07:30am 22.1 24.4 19.5 85 1.7 SE 6 11 3 6 1015.1 1011.5 3.6
28/07:00am 21.0 23.9 19.8 93 0.8 ESE 4 9 2 5 1014.8 1011.1 3.6
28/06:30am 20.3 22.6 19.5 95 0.5 ESE 6 13 3 7 1014.4 1010.7 3.6
28/06:00am 20.3 23.0 19.5 95 0.5 SE 4 9 2 5 1014.4 1010.7 3.6
28/05:30am 20.3 23.0 19.5 95 0.5 SE 4 9 2 5 1014.1 1010.5 3.6
28/05:00am 20.3 23.0 19.5 95 0.5 ESE 4 9 2 5 1014.0 1010.4 3.6
28/04:30am 20.2 23.1 19.0 93 0.8 E 2 6 1 3 1013.9 1010.3 3.6
28/04:00am 20.3 23.6 19.1 93 0.8 CALM 0 4 0 2 1013.8 1010.2 3.6
28/03:30am 20.9 23.1 19.2 90 1.1 ENE 6 9 3 5 1013.9 1010.3 3.6
28/03:00am 21.4 23.6 19.3 88 1.4 ENE 6 11 3 6 1013.8 1010.2 3.6
28/02:30am 21.4 23.3 19.0 86 1.5 ENE 7 15 4 8 1013.9 1010.3 3.6
28/02:00am 21.1 23.1 18.7 86 1.5 E 6 9 3 5 1014.4 1010.7 3.6
28/01:30am 21.7 23.1 18.7 83 1.9 ENE 9 17 5 9 1014.8 1011.1 3.6
28/01:00am 21.8 23.3 18.8 83 1.9 ENE 9 17 5 9 1015.1 1011.5 3.6
28/12:30am 21.8 24.0 19.5 87 1.5 ENE 7 15 4 8 1015.3 1011.7 3.6
28/12:00am 22.0 23.9 19.7 87 1.5 ENE 9 19 5 10 1015.7 1012.1 3.6
 
Date/Time
EST
Temp
°C
App
Temp
°C
Dew
Point
°C
Rel
Hum
%
Delta-T
°C
Wind Press
QNH
hPa
Press
MSL
hPa
Rain since
9am
mm
Dir  Spd
km/h
Gust
km/h
Spd
kts
Gust
kts
27/11:30pm 22.0 23.9 19.7 87 1.5 ENE 9 15 5 8 1015.7 1012.1 3.6
27/11:00pm 22.1 24.3 19.6 86 1.6 E 7 13 4 7 1015.9 1012.3 3.6
27/10:30pm 22.3 23.8 19.8 86 1.6 ENE 11 20 6 11 1015.7 1012.1 3.6
27/10:00pm 22.2 23.6 19.6 85 1.7 ENE 11 20 6 11 1015.5 1011.9 3.6
27/09:30pm 21.6 23.2 18.2 81 2.2 ENE 7 17 4 9 1015.1 1011.5 3.6
27/09:00pm 21.1 24.2 18.7 86 1.5 CALM 0 4 0 2 1014.8 1011.1 3.6
27/08:30pm 21.4 23.3 19.0 86 1.5 NE 7 13 4 7 1014.7 1011.0 3.6
27/08:00pm 21.0 23.7 19.5 91 1.0 N 4 9 2 5 1014.2 1010.6 3.6
27/07:30pm 21.1 23.3 19.2 89 1.2 E 6 9 3 5 1014.6 1010.9 3.6
27/07:00pm 22.6 24.7 20.1 86 1.6 E 9 17 5 9 1014.7 1011.0 3.4
27/06:30pm 23.3 25.8 19.9 81 2.2 ENE 6 13 3 7 1014.0 1010.4 3.4
27/06:00pm 23.8 26.9 21.5 87 1.6 NNE 7 15 4 8 1013.4 1009.8 3.4
27/05:30pm 25.0 27.8 20.9 78 2.7 NNE 7 17 4 9 1013.3 1009.7 2.8
27/05:00pm 25.1 27.9 20.8 77 2.9 NNE 7 15 4 8 1013.1 1009.4 2.8
27/04:30pm 24.7 27.2 21.0 80 2.5 NNE 9 17 5 9 1013.0 1009.3 2.8
27/04:00pm 24.5 28.8 22.6 89 1.3 NNE 4 9 2 5 1013.1 1009.4 2.8
27/03:30pm 27.0 28.2 19.9 65 4.7 NNE 13 22 7 12 1013.1 1009.4 0.0
27/03:00pm 26.6 28.2 20.7 70 4.0 NE 13 22 7 12 1013.3 1009.7 0.0
27/02:30pm 28.0 29.9 20.6 64 5.0 NNE 11 19 6 10 1013.4 1009.8 0.0
27/02:00pm 28.4 30.9 20.2 61 5.5 NNE 7 17 4 9 1013.7 1010.1 0.0
27/01:30pm 27.7 30.1 18.7 58 5.9 E 4 13 2 7 1013.8 1010.2 0.0
27/01:00pm 27.1 28.6 18.1 58 5.8 NE 7 19 4 10 1014.6 1010.9 0.0
27/12:30pm 27.2 29.0 19.5 62 5.1 NNE 9 17 5 9 1014.7 1011.0 0.0
27/12:00pm 26.8 28.7 18.9 62 5.2 NE 7 13 4 7 1015.2 1011.6 0.0
27/11:30am 26.8 28.2 18.6 60 5.4 ESE 9 17 5 9 1015.6 1012.0 0.0
27/11:00am 26.4 28.9 19.0 63 4.8 E 4 13 2 7 1015.9 1012.3 0.0
27/10:30am 25.8 27.5 18.5 64 4.7 SE 7 15 4 8 1016.3 1012.6 0.0
27/10:00am 25.4 27.5 19.3 69 4.0 ESE 7 13 4 7 1016.4 1012.7 0.0
27/09:30am 24.7 26.6 18.9 70 3.8 SE 7 19 4 10 1016.3 1012.6 0.0
27/09:00am 23.7 25.8 19.4 77 2.8 SE 7 17 4 9 1016.1 1012.5 0.0
27/08:30am 23.4 25.5 19.3 78 2.7 ESE 7 13 4 7 1015.9 1012.3 0.0
27/08:00am 23.2 25.4 19.6 80 2.4 SE 7 13 4 7 1015.7 1012.1 0.0
27/07:30am 21.9 24.2 19.5 86 1.6 SE 6 17 3 9 1015.4 1011.8 0.0
27/07:00am 21.0 23.0 19.1 89 1.2 SE 7 15 4 8 1015.3 1011.7 0.0
27/06:30am 20.3 22.3 18.8 91 1.0 SE 6 9 3 5 1014.8 1011.1 0.0
27/06:00am 20.2 22.2 18.7 91 1.0 ESE 6 9 3 5 1014.2 1010.6 0.0
27/05:30am 19.8 22.0 18.3 91 1.0 E 4 7 2 4 1014.0 1010.4 0.0
27/05:00am 19.8 21.6 18.3 91 1.0 ESE 6 9 3 5 1014.1 1010.5 0.0
27/04:30am 20.0 21.9 18.5 91 1.0 ESE 6 11 3 6 1014.0 1010.4 0.0
27/04:00am 20.2 22.1 19.0 93 0.8 ESE 7 15 4 8 1014.0 1010.4 0.0
27/03:30am 19.9 21.9 18.7 93 0.8 ESE 6 11 3 6 1013.9 1010.3 0.0
27/03:00am 20.3 22.5 19.1 93 0.8 ESE 6 9 3 5 1014.0 1010.4 0.0
27/02:30am - - - - - ESE 4 7 2 4 1014.0 1010.4 0.0
27/02:00am 20.8 23.5 19.5 92 0.8 ENE 4 6 2 3 1014.2 1010.6 0.0
27/01:30am 21.3 23.6 19.4 89 1.2 ENE 6 9 3 5 1014.6 1010.9 0.0
27/01:00am 21.8 24.0 19.7 88 1.4 NE 7 15 4 8 1014.9 1011.3 0.0
27/12:30am 21.9 24.3 20.0 89 1.2 ENE 7 15 4 8 1014.9 1011.3 0.0
27/12:00am 21.9 24.3 20.0 89 1.2 ENE 7 15 4 8 1015.0 1011.4 0.0
 
Date/Time
EST
Temp
°C
App
Temp
°C
Dew
Point
°C
Rel
Hum
%
Delta-T
°C
Wind Press
QNH
hPa
Press
MSL
hPa
Rain since
9am
mm
Dir  Spd
km/h
Gust
km/h
Spd
kts
Gust
kts
26/11:30pm 22.0 24.6 20.1 89 1.2 NE 6 11 3 6 1015.3 1011.7 0.0
26/11:00pm 22.4 24.8 20.1 87 1.5 ENE 7 17 4 9 1015.4 1011.8 0.0
26/10:30pm 22.6 24.7 20.1 86 1.6 ENE 9 20 5 11 1015.2 1011.6 0.0
26/10:00pm 22.9 24.8 20.6 87 1.5 NE 11 20 6 11 1015.0 1011.4 0.0
26/09:30pm 22.9 25.5 21.2 90 1.1 NE 9 19 5 10 1014.9 1011.3 0.0
26/09:00pm 22.9 25.0 21.0 89 1.3 NE 11 19 6 10 1014.5 1010.8 0.0
26/08:30pm 23.1 25.1 20.8 87 1.5 NE 11 20 6 11 1014.1 1010.5 0.0
26/08:00pm 23.3 25.8 20.2 83 2.0 NE 7 17 4 9 1013.8 1010.2 0.0
26/07:30pm 23.2 25.6 19.6 80 2.4 NNE 6 11 3 6 1013.5 1009.9 0.0
26/07:00pm 23.5 25.1 19.2 77 2.8 NE 9 19 5 10 1013.2 1009.6 0.0
26/06:30pm 24.1 25.9 19.6 76 3.0 NNE 9 17 5 9 1012.9 1009.2 0.0
26/06:00pm 25.0 27.2 20.3 75 3.1 NNE 9 19 5 10 1012.7 1009.0 0.0
26/05:30pm 25.5 27.1 19.9 71 3.7 NNE 11 20 6 11 1012.5 1008.8 0.0
26/05:00pm 26.5 28.3 20.3 68 4.1 NNE 11 20 6 11 1012.5 1008.8 0.0
26/04:30pm 26.9 28.8 20.5 68 4.3 NNE 11 20 6 11 1012.2 1008.6 0.0
26/04:00pm 27.3 29.0 20.1 64 4.8 NNE 11 20 6 11 1012.1 1008.5 0.0
26/03:30pm 27.0 28.3 19.4 63 5.0 NNE 11 19 6 10 1012.1 1008.5 0.0
26/03:00pm 28.0 30.0 20.0 61 5.3 NNE 9 15 5 8 1012.3 1008.7 0.0
26/02:30pm 28.1 29.9 18.2 55 6.4 ENE 6 11 3 6 1012.5 1008.8 0.0
26/02:00pm 28.3 30.1 18.4 55 6.5 ESE 6 13 3 7 1012.9 1009.2 0.0
26/01:30pm 27.9 29.5 18.3 56 6.3 E 7 13 4 7 1013.3 1009.7 0.0
26/01:00pm 27.8 29.3 18.8 58 5.9 E 9 15 5 8 1013.8 1010.2 0.0
26/12:30pm 27.1 28.6 18.9 61 5.4 ESE 9 19 5 10 1014.2 1010.6 0.0
26/12:00pm 27.1 29.0 19.7 64 4.9 ESE 9 17 5 9 1014.6 1010.9 0.0
26/11:30am 27.1 29.8 20.7 68 4.3 E 7 17 4 9 1014.8 1011.1 0.0
26/11:00am 25.4 27.1 19.3 69 4.0 ENE 9 17 5 9 1015.1 1011.5 0.0
26/10:30am 25.1 27.7 20.4 75 3.1 E 7 19 4 10 1015.1 1011.5 0.0
26/10:00am 25.4 27.6 20.4 74 3.3 E 9 17 5 9 1015.3 1011.7 0.0
26/09:30am 24.5 26.5 20.0 76 3.0 E 9 19 5 10 1015.4 1011.8 0.0
26/09:00am 23.5 26.9 21.0 86 1.7 ESE 4 9 2 5 1015.4 1011.8 0.0
26/08:30am 23.4 25.9 20.3 83 2.1 ESE 7 13 4 7 1015.1 1011.5 0.0
26/08:00am 22.6 25.0 20.1 86 1.6 ESE 7 15 4 8 1014.9 1011.3 0.0
26/07:30am 22.7 25.5 20.4 87 1.5 ESE 6 11 3 6 1014.4 1010.7 0.0
26/07:00am 19.5 22.7 18.8 96 0.4 CALM 0 6 0 3 1013.9 1010.3 0.0
26/06:30am 18.4 21.0 17.4 94 0.6 CALM 0 0 0 0 1013.6 1010.0 0.0
26/06:00am 18.4 21.0 17.4 94 0.6 CALM 0 0 0 0 1013.5 1009.9 0.0
26/05:30am 18.4 20.9 17.2 93 0.7 CALM 0 0 0 0 1013.1 1009.4 0.0
26/05:00am 19.1 22.0 18.1 94 0.6 CALM 0 0 0 0 1012.9 1009.2 0.0
26/04:30am 19.0 21.6 17.5 91 0.9 CALM 0 0 0 0 1012.7 1009.0 0.0
26/04:00am 19.5 22.2 17.8 90 1.1 CALM 0 0 0 0 1012.8 1009.1 0.0
26/03:30am 20.2 23.0 18.0 87 1.4 CALM 0 0 0 0 1012.8 1009.1 0.0
26/03:00am 21.0 23.2 18.4 85 1.7 ENE 4 7 2 4 1012.8 1009.1 0.0
26/02:30am 21.1 23.3 18.3 84 1.8 ENE 4 7 2 4 1012.9 1009.2 0.0
26/02:00am 21.2 23.1 18.6 85 1.7 NE 6 9 3 5 1013.1 1009.4 0.0
26/01:30am 21.1 23.3 19.2 89 1.2 ENE 6 9 3 5 1013.4 1009.8 0.0
26/01:00am 21.6 23.9 19.5 88 1.4 ENE 6 13 3 7 1013.9 1010.3 0.0
26/12:30am 21.8 23.6 19.5 87 1.5 ENE 9 15 5 8 1014.1 1010.5 0.0
26/12:00am 21.6 23.8 19.3 87 1.5 ENE 6 9 3 5 1014.4 1010.7 0.0
 
Date/Time
EST
Temp
°C
App
Temp
°C
Dew
Point
°C
Rel
Hum
%
Delta-T
°C
Wind Press
QNH
hPa
Press
MSL
hPa
Rain since
9am
mm
Dir  Spd
km/h
Gust
km/h
Spd
kts
Gust
kts
25/11:30pm 22.0 24.7 19.4 85 1.7 ENE 4 9 2 5 1014.7 1011.0 0.0
25/11:00pm 22.3 24.6 19.5 84 1.8 ENE 6 9 3 5 1014.7 1011.0 0.0
25/10:30pm 22.5 25.0 19.9 85 1.7 ENE 6 7 3 4 1014.7 1011.0 0.0
25/10:00pm 22.8 24.9 20.1 85 1.8 NE 9 17 5 9 1014.6 1010.9 0.0
25/09:30pm 22.8 25.6 20.5 87 1.5 NE 6 11 3 6 1014.5 1010.8 0.0
25/09:00pm 23.1 25.4 20.6 86 1.7 NE 9 15 5 8 1014.5 1010.8 0.0
25/08:30pm 23.3 25.6 20.6 85 1.8 NE 9 17 5 9 1014.0 1010.4 0.0
25/08:00pm 23.2 25.8 20.5 85 1.8 NE 7 13 4 7 1013.9 1010.3 0.0
25/07:30pm 23.2 25.8 20.5 85 1.8 NE 7 13 4 7 1013.5 1009.9 0.0
25/07:00pm 23.6 25.9 20.7 84 1.9 NE 9 19 5 10 1013.3 1009.7 0.0
25/06:30pm 23.9 25.9 20.8 83 2.1 NE 11 20 6 11 1013.3 1009.7 0.0
25/06:00pm 24.2 26.2 20.7 81 2.3 NNE 11 19 6 10 1013.1 1009.4 0.0

Other Formats:

Comma delimited format used in spreadsheet applications
http://www.bom.gov.au/fwo/IDQ60801/IDQ60801.95293.axf

JavaScript Object Notation format (JSON) in row-major order
http://www.bom.gov.au/fwo/IDQ60801/IDQ60801.95293.json